Time;durP1;ratioP1;P1;durP2;ratioP2;P2;SDS_P1;SDS_P2;PMS_P1;PMS_P2;Temp;Humidity;BMP_temperature;BMP_pressure;BME280_temperature;BME280_humidity;BME280_pressure;Samples;Min_cycle;Max_cycle;Signal;HPM_P1;HPM_P2
2023/03/15 00:01:03;;;;;;;7.30;5.00;;;2.60;99.90;;;2.04;91.48;97258.06;5108996;27;20459;-79
2023/03/15 00:03:31;;;;;;;7.90;4.00;;;2.50;99.90;;;2.14;90.86;97285.31;5090086;28;20476;-80
2023/03/15 00:06:01;;;;;;;6.93;4.47;;;2.40;99.90;;;2.06;90.56;97285.41;5082486;28;20477;-78
2023/03/15 00:08:28;;;;;;;8.20;4.17;;;2.40;99.90;;;1.97;90.70;97292.59;5090324;28;20467;-78
2023/03/15 00:10:56;;;;;;;9.50;4.67;;;2.30;99.90;;;2.07;91.31;97298.53;5084406;28;20486;-81
2023/03/15 00:13:23;;;;;;;8.63;5.03;;;2.20;99.90;;;1.94;91.79;97309.78;5106897;28;20458;-80
2023/03/15 00:15:53;;;;;;;8.43;4.80;;;2.20;99.90;;;1.82;92.05;97300.53;5087764;28;21022;-78
2023/03/15 00:18:21;;;;;;;11.17;4.60;;;2.10;99.90;;;2.05;91.63;97326.38;5088416;28;20890;-78
2023/03/15 00:20:49;;;;;;;5.70;4.60;;;2.20;99.90;;;1.93;91.21;97318.78;5099042;28;20468;-78
2023/03/15 00:23:16;;;;;;;10.03;5.07;;;2.20;99.90;;;2.00;91.44;97324.25;5090462;28;20444;-79
2023/03/15 00:25:45;;;;;;;6.83;4.20;;;2.10;99.90;;;1.83;91.67;97312.84;5099143;28;20904;-81
2023/03/15 00:28:14;;;;;;;8.37;5.00;;;2.10;99.90;;;1.99;91.54;97330.59;5092402;28;20478;-81
2023/03/15 00:30:42;;;;;;;9.17;4.67;;;2.10;99.90;;;2.00;91.64;97348.22;5079352;28;20499;-81
2023/03/15 00:33:12;;;;;;;7.23;5.20;;;2.10;99.90;;;2.07;91.84;97346.50;5101146;28;20465;-78
2023/03/15 00:35:41;;;;;;;10.50;5.00;;;2.20;99.90;;;2.09;91.18;97343.66;5084230;28;20451;-80
2023/03/15 00:38:10;;;;;;;13.03;8.10;;;2.30;99.90;;;2.02;91.47;97356.03;5106791;27;20447;-81
2023/03/15 00:40:38;;;;;;;15.87;8.40;;;2.20;99.90;;;1.87;92.54;97364.78;5092944;28;20456;-79
2023/03/15 00:43:05;;;;;;;20.33;8.60;;;2.10;99.90;;;2.04;92.68;97370.00;5079826;28;20963;-78
2023/03/15 00:45:34;;;;;;;17.60;9.20;;;2.20;99.90;;;2.26;92.38;97368.34;5084514;28;20868;-75
2023/03/15 00:48:01;;;;;;;7.43;5.10;;;2.30;99.90;;;2.08;92.70;97372.13;5089200;28;20450;-77
2023/03/15 00:50:28;;;;;;;12.47;5.00;;;2.30;99.90;;;2.08;92.77;97360.66;5082296;28;20475;-78
2023/03/15 00:52:56;;;;;;;9.10;4.60;;;2.30;99.90;;;2.01;92.54;97371.19;5082196;28;20926;-77
2023/03/15 00:55:23;;;;;;;6.40;4.27;;;2.30;99.90;;;2.17;91.60;97383.56;5088450;28;20483;-78
2023/03/15 00:57:50;;;;;;;9.37;4.20;;;2.40;99.90;;;2.23;91.78;97382.88;5086108;28;20463;-75
2023/03/15 01:00:23;;;;;;;11.43;5.00;;;2.40;99.90;;;0.87;90.89;97227.88;5122327;27;20469;-78
2023/03/15 01:02:52;;;;;;;6.60;3.83;;;2.40;99.90;;;2.25;91.49;97391.53;5120741;27;20780;-79
2023/03/15 01:05:20;;;;;;;10.40;3.37;;;2.30;99.90;;;2.22;90.47;97391.88;5079699;28;20491;-80
2023/03/15 01:07:47;;;;;;;9.03;4.00;;;2.50;99.90;;;2.30;91.07;97390.16;5101229;28;20921;-80
2023/03/15 01:10:16;;;;;;;7.07;3.70;;;2.40;99.90;;;2.50;90.20;97410.00;5097811;28;20448;-78
2023/03/15 01:12:44;;;;;;;4.60;3.07;;;2.60;99.90;;;2.24;89.45;97421.84;5100753;27;20443;-79
2023/03/15 01:15:14;;;;;;;8.27;2.83;;;2.50;99.90;;;1.87;89.89;97409.25;5116071;27;20453;-80
2023/03/15 01:17:42;;;;;;;9.63;2.67;;;2.40;99.90;;;1.89;90.60;97436.53;5088585;28;20455;-77
2023/03/15 01:20:13;;;;;;;9.93;3.27;;;2.30;99.90;;;1.92;91.05;97442.38;5103846;28;20464;-80
2023/03/15 01:22:41;;;;;;;5.00;2.90;;;2.20;99.90;;;1.73;91.98;97448.94;5117886;27;20876;-79
2023/03/15 01:25:09;;;;;;;11.20;3.47;;;2.20;99.90;;;1.69;92.43;97448.44;5094891;28;20465;-81
2023/03/15 01:27:36;;;;;;;13.10;4.60;;;2.10;99.90;;;1.68;92.62;97443.31;5086336;28;20480;-79
2023/03/15 01:30:06;;;;;;;6.27;3.20;;;2.10;99.90;;;1.44;92.50;97446.84;5098305;28;20454;-79
2023/03/15 01:32:33;;;;;;;8.47;4.33;;;2.00;99.90;;;1.21;93.67;97452.91;5101073;28;20467;-80
2023/03/15 01:35:01;;;;;;;4.40;3.27;;;1.80;99.90;;;1.45;93.61;97460.00;5107913;27;20474;-77
2023/03/15 01:37:29;;;;;;;4.90;3.77;;;1.70;99.90;;;1.27;93.59;97453.06;5095021;28;20445;-78
2023/03/15 01:39:56;;;;;;;7.10;3.43;;;1.70;99.90;;;1.23;93.24;97456.25;5096746;28;20470;-77
2023/03/15 01:42:24;;;;;;;5.83;3.90;;;1.70;99.90;;;1.32;93.33;97455.22;5119543;28;20435;-74
2023/03/15 01:44:56;;;;;;;5.83;3.57;;;1.60;99.90;;;1.42;92.85;97453.19;5134771;27;20478;-74
2023/03/15 01:47:25;;;;;;;5.73;3.60;;;1.70;99.90;;;1.48;92.13;97464.19;5113410;28;20467;-76
2023/03/15 01:49:59;;;;;;;6.70;4.10;;;1.70;99.90;;;1.41;92.95;97454.19;5098362;28;20460;-73
2023/03/15 01:52:33;;;;;;;4.53;3.33;;;1.70;99.90;;;1.29;93.05;97476.03;5092871;28;20471;-79
2023/03/15 01:55:05;;;;;;;4.90;3.17;;;1.60;99.90;;;1.46;92.56;97477.66;5091068;28;20527;-78
2023/03/15 01:57:37;;;;;;;7.77;3.43;;;1.70;99.90;;;1.12;92.72;97460.91;5104328;28;20552;-74
2023/03/15 02:00:10;;;;;;;5.13;3.03;;;1.60;99.90;;;1.03;93.11;97483.22;5098428;28;20463;-76
2023/03/15 02:02:45;;;;;;;4.93;3.37;;;1.60;99.90;;;1.06;93.28;97466.06;5093908;28;20446;-80
2023/03/15 02:05:18;;;;;;;5.60;3.10;;;1.60;99.90;;;1.20;92.93;97473.38;5100533;27;20466;-79
2023/03/15 02:07:49;;;;;;;5.13;3.27;;;1.60;99.90;;;1.16;92.90;97488.03;5106516;27;20475;-76
2023/03/15 02:10:23;;;;;;;6.23;3.50;;;1.60;99.90;;;1.27;92.82;97486.84;5101649;27;20777;-76
2023/03/15 02:12:52;;;;;;;3.37;2.70;;;1.60;99.90;;;1.19;93.06;97482.34;5105109;28;20447;-76
2023/03/15 02:15:20;;;;;;;5.70;3.70;;;1.60;99.90;;;1.41;92.17;97495.97;5102996;28;20550;-78
2023/03/15 02:17:49;;;;;;;5.30;3.90;;;1.60;99.90;;;1.39;92.01;97498.78;5080456;28;20914;-76
2023/03/15 02:20:33;;;;;;;4.87;3.23;;;1.70;99.90;;;1.35;92.22;97496.63;5113464;27;20448;-78
2023/03/15 02:23:05;;;;;;;8.90;3.60;;;1.70;99.90;;;1.30;91.98;97505.16;5087980;28;20460;-77
2023/03/15 02:25:44;;;;;;;9.13;3.50;;;1.70;99.90;;;1.49;92.34;97505.78;5098289;28;20439;-75
2023/03/15 02:28:16;;;;;;;4.03;3.63;;;1.80;99.90;;;1.59;92.12;97509.06;5101675;28;20508;-78
2023/03/15 02:30:44;;;;;;;5.50;3.93;;;1.80;99.90;;;1.48;92.15;97506.78;5099770;28;20519;-76
2023/03/15 02:33:19;;;;;;;5.50;4.47;;;1.80;99.90;;;1.70;91.54;97519.34;5094437;28;20560;-77
2023/03/15 02:35:46;;;;;;;4.97;3.40;;;1.90;99.90;;;1.62;91.94;97526.53;5090592;28;20867;-75
2023/03/15 02:38:13;;;;;;;5.10;4.00;;;1.90;99.90;;;1.54;92.15;97522.91;5110905;27;20454;-75
2023/03/15 02:40:41;;;;;;;6.80;5.00;;;1.90;99.90;;;1.67;91.83;97538.34;5085294;28;20480;-75
2023/03/15 02:43:16;;;;;;;6.57;5.13;;;1.90;99.90;;;1.55;91.59;97529.03;5094184;28;20948;-76
2023/03/15 02:45:44;;;;;;;6.40;4.70;;;1.90;99.90;;;1.62;91.56;97540.69;5104613;27;20521;-75
2023/03/15 02:48:13;;;;;;;7.23;5.33;;;1.90;99.90;;;1.69;90.89;97547.00;5088612;28;20489;-75
2023/03/15 02:50:40;;;;;;;10.00;5.57;;;2.00;99.90;;;1.64;90.04;97552.00;5114133;27;20459;-76
2023/03/15 02:53:07;;;;;;;8.80;4.90;;;2.00;99.90;;;1.68;89.87;97556.00;5087936;28;20474;-77
2023/03/15 02:55:35;;;;;;;7.23;4.83;;;2.00;99.90;;;1.61;90.15;97555.03;5082035;28;20480;-71
2023/03/15 02:58:03;;;;;;;12.63;5.30;;;1.90;99.90;;;1.51;89.65;97552.50;5113720;27;20461;-75
2023/03/15 03:00:31;;;;;;;10.50;5.90;;;1.90;99.90;;;1.54;89.70;97570.84;5111655;27;21135;-76
2023/03/15 03:02:59;;;;;;;6.20;4.90;;;1.90;99.90;;;1.45;90.05;97547.06;5123404;27;20466;-77
2023/03/15 03:05:26;;;;;;;4.27;3.37;;;1.90;99.90;;;1.32;90.13;97580.34;5082802;28;21031;-77
2023/03/15 03:07:53;;;;;;;5.00;3.80;;;1.80;99.90;;;1.32;90.72;97572.34;5123842;27;20461;-77
2023/03/15 03:10:21;;;;;;;5.13;4.50;;;1.70;99.90;;;1.37;89.50;97586.00;5110828;28;20462;-77
2023/03/15 03:12:52;;;;;;;5.93;4.00;;;1.70;99.90;;;1.36;89.79;97589.66;5106321;28;20456;-74
2023/03/15 03:15:20;;;;;;;4.43;3.67;;;1.70;99.90;;;1.12;90.46;97588.63;5110179;28;20449;-77
2023/03/15 03:17:49;;;;;;;5.27;4.57;;;1.60;99.90;;;1.13;90.40;97606.25;5110023;28;20826;-75
2023/03/15 03:20:16;;;;;;;10.20;3.87;;;1.50;99.90;;;1.08;90.99;97611.25;5089565;28;20513;-76
2023/03/15 03:22:44;;;;;;;8.20;4.23;;;1.50;99.90;;;1.17;90.54;97620.09;5090545;28;20456;-73
2023/03/15 03:25:12;;;;;;;6.60;4.13;;;1.50;99.90;;;1.06;90.96;97623.91;5090386;28;20447;-76
2023/03/15 03:27:42;;;;;;;6.97;4.37;;;1.40;99.90;;;0.94;91.33;97638.50;5087403;28;20476;-74
2023/03/15 03:30:13;;;;;;;7.73;4.70;;;1.40;99.90;;;1.05;90.42;97632.03;5103887;28;20477;-75
2023/03/15 03:32:41;;;;;;;7.53;3.90;;;1.40;99.90;;;0.97;90.78;97644.34;5103498;27;20454;-73
2023/03/15 03:35:10;;;;;;;8.37;4.53;;;1.30;99.90;;;0.94;90.50;97654.47;5101964;28;20450;-75
2023/03/15 03:37:37;;;;;;;19.17;4.70;;;1.30;99.90;;;0.87;91.31;97661.47;5116122;27;20443;-74
2023/03/15 03:40:06;;;;;;;6.40;3.90;;;1.20;99.90;;;0.87;91.61;97661.47;5091619;28;20488;-76
2023/03/15 03:42:34;;;;;;;9.27;4.40;;;1.20;99.90;;;0.96;91.14;97663.13;5107078;28;20459;-74
2023/03/15 03:45:01;;;;;;;12.03;4.40;;;1.30;99.90;;;0.90;91.15;97669.91;5104370;28;20787;-73
2023/03/15 03:47:28;;;;;;;11.20;4.63;;;1.30;99.90;;;1.06;90.41;97673.63;5093062;28;20501;-76
2023/03/15 03:49:55;;;;;;;8.50;4.10;;;1.40;99.90;;;0.74;90.50;97638.81;5104962;28;20443;-75
2023/03/15 03:52:24;;;;;;;6.63;4.67;;;1.40;99.90;;;1.01;89.74;97684.78;5088055;28;20455;-75
2023/03/15 03:54:51;;;;;;;10.60;4.87;;;1.40;99.90;;;0.96;89.82;97685.25;5092469;28;20445;-75
2023/03/15 03:57:18;;;;;;;6.63;4.40;;;1.30;99.90;;;0.33;89.68;97599.63;5131879;27;20463;-74
2023/03/15 03:59:45;;;;;;;8.23;4.20;;;1.30;99.90;;;0.85;89.79;97696.19;5105054;28;20459;-75
2023/03/15 04:02:13;;;;;;;9.10;4.93;;;1.20;99.90;;;0.60;90.40;97706.72;5112469;27;20453;-77
2023/03/15 04:04:41;;;;;;;9.80;5.40;;;1.10;99.90;;;0.39;90.80;97683.22;5092261;28;21301;-76
2023/03/15 04:07:08;;;;;;;9.73;5.30;;;1.00;99.90;;;0.54;91.11;97702.91;5097334;28;20497;-73
2023/03/15 04:09:36;;;;;;;11.03;6.23;;;1.00;99.90;;;0.59;90.39;97705.06;5107436;28;20454;-76
2023/03/15 04:12:05;;;;;;;11.33;6.50;;;1.00;99.90;;;0.51;90.74;97703.19;5099368;28;20459;-74
2023/03/15 04:14:32;;;;;;;13.50;7.00;;;0.90;99.90;;;0.44;90.96;97706.63;5089684;28;20459;-75
2023/03/15 04:17:02;;;;;;;13.40;6.47;;;0.90;99.90;;;0.39;91.03;97707.97;5111682;28;20533;-74
2023/03/15 04:19:30;;;;;;;10.60;7.07;;;0.80;99.90;;;0.28;91.35;97703.75;5115441;27;21677;-75
2023/03/15 04:21:57;;;;;;;15.83;7.50;;;0.70;99.90;;;0.05;92.00;97678.69;5096054;28;20457;-76
2023/03/15 04:24:24;;;;;;;10.73;7.57;;;0.70;99.90;;;0.23;91.47;97724.66;5125616;27;20442;-77
2023/03/15 04:26:56;;;;;;;12.73;8.43;;;0.60;99.90;;;0.27;91.21;97728.66;5093536;28;20474;-77
2023/03/15 04:29:23;;;;;;;13.80;6.80;;;0.60;99.90;;;0.22;91.82;97728.28;5094029;28;20469;-77
2023/03/15 04:31:51;;;;;;;22.30;7.87;;;0.60;99.90;;;0.21;91.88;97747.88;5091090;28;20460;-77
2023/03/15 04:34:18;;;;;;;15.77;8.30;;;0.60;99.90;;;0.20;91.40;97743.56;5082914;28;20512;-78
2023/03/15 04:36:45;;;;;;;13.23;7.73;;;0.60;99.90;;;0.07;92.54;97749.28;5089687;28;20462;-74
2023/03/15 04:39:12;;;;;;;15.93;8.80;;;0.50;99.90;;;0.07;92.23;97754.59;5106536;27;20448;-77
2023/03/15 04:41:39;;;;;;;17.20;8.70;;;0.50;99.90;;;0.09;92.13;97763.25;5096121;28;20446;-76
2023/03/15 04:44:08;;;;;;;15.33;8.93;;;0.40;99.90;;;0.24;91.61;97771.50;5085748;28;20437;-76
2023/03/15 04:46:35;;;;;;;18.40;7.87;;;0.50;99.90;;;0.17;91.77;97773.09;5093538;28;20458;-75
2023/03/15 04:49:04;;;;;;;11.77;7.40;;;0.50;99.90;;;0.21;91.84;97778.94;5095813;28;20465;-73
2023/03/15 04:51:33;;;;;;;18.10;7.67;;;0.50;99.90;;;0.23;91.09;97777.81;5117862;27;20529;-74
2023/03/15 04:54:01;;;;;;;14.70;7.60;;;0.50;99.90;;;0.11;92.23;97802.97;5110437;27;20511;-72
2023/03/15 04:56:28;;;;;;;13.00;7.83;;;0.50;99.90;;;0.20;91.71;97786.06;5082040;28;20493;-75
2023/03/15 04:58:55;;;;;;;12.90;8.80;;;0.50;99.90;;;0.13;91.65;97783.19;5089040;28;20508;-76
2023/03/15 05:01:30;;;;;;;16.93;9.40;;;0.50;99.90;;;0.02;91.51;97785.28;5091241;28;20472;-74
2023/03/15 05:03:57;;;;;;;16.67;9.07;;;0.50;99.90;;;0.12;92.59;97796.66;5136195;27;21819;-76
2023/03/15 05:06:25;;;;;;;16.20;8.90;;;0.40;99.90;;;0.13;91.84;97791.16;5085257;28;20456;-77
2023/03/15 05:08:52;;;;;;;15.13;9.10;;;0.40;99.90;;;-0.04;92.20;97774.28;5106430;28;20945;-75
2023/03/15 05:11:19;;;;;;;20.93;10.10;;;0.40;99.90;;;0.08;91.81;97787.31;5110656;27;20492;-77
2023/03/15 05:13:46;;;;;;;20.37;9.97;;;0.40;99.90;;;0.09;91.59;97805.75;5107370;28;20443;-74
2023/03/15 05:16:14;;;;;;;14.87;9.73;;;0.30;99.90;;;0.01;91.71;97810.16;5091471;28;20447;-75
2023/03/15 05:18:44;;;;;;;15.90;10.20;;;0.30;99.90;;;0.02;91.91;97809.19;5083090;28;20480;-74
2023/03/15 05:21:11;;;;;;;16.80;10.00;;;0.30;99.90;;;-0.01;92.61;97821.78;5086960;28;20544;-73
2023/03/15 05:23:39;;;;;;;17.57;9.30;;;0.40;99.90;;;-0.02;92.64;97814.81;5088615;28;21354;-71
2023/03/15 05:26:06;;;;;;;14.80;9.57;;;0.40;99.90;;;-0.01;92.24;97819.13;5098636;28;20454;-73
2023/03/15 05:28:33;;;;;;;20.57;9.37;;;0.40;99.90;;;0.06;92.60;97826.47;5091935;28;20502;-73
2023/03/15 05:31:02;;;;;;;19.40;11.13;;;0.40;99.90;;;-0.22;91.83;97803.50;5088898;28;20892;-73
2023/03/15 05:33:30;;;;;;;17.17;10.50;;;0.30;99.90;;;0.10;92.32;97835.81;5098419;28;20446;-73
2023/03/15 05:35:59;;;;;;;19.17;11.23;;;0.40;99.90;;;-0.01;91.83;97843.03;5136798;27;20533;-73
2023/03/15 05:38:27;;;;;;;16.87;10.00;;;0.30;99.90;;;0.09;92.58;97842.13;5099792;28;20930;-72
2023/03/15 05:40:54;;;;;;;19.90;10.87;;;0.40;99.90;;;0.11;92.09;97840.16;5096389;28;20467;-68
2023/03/15 05:43:21;;;;;;;14.50;9.03;;;0.40;99.90;;;0.02;91.61;97827.78;5088900;28;20855;-69
2023/03/15 05:45:49;;;;;;;20.00;10.40;;;0.50;99.90;;;0.15;91.38;97846.81;5096798;28;20459;-70
2023/03/15 05:48:16;;;;;;;18.73;10.80;;;0.50;99.90;;;0.27;91.68;97866.88;5104299;27;20562;-69
2023/03/15 05:50:44;;;;;;;18.10;10.10;;;0.50;99.90;;;0.34;91.38;97860.91;5089193;28;20461;-68
2023/03/15 05:53:13;;;;;;;16.80;10.40;;;0.60;99.90;;;0.36;90.97;97877.53;5086671;28;20458;-70
2023/03/15 05:55:40;;;;;;;19.00;9.17;;;0.60;99.90;;;0.34;91.19;97866.22;5087305;28;21121;-70
2023/03/15 05:58:07;;;;;;;19.00;9.30;;;0.60;99.90;;;0.45;90.85;97873.13;5101371;27;20443;-73
2023/03/15 06:00:34;;;;;;;20.70;9.73;;;0.60;99.90;;;0.40;90.92;97876.28;5081034;28;21307;-70
2023/03/15 06:03:02;;;;;;;21.57;9.83;;;0.60;99.90;;;0.36;90.48;97886.38;5088449;28;20443;-72
2023/03/15 06:05:29;;;;;;;23.40;9.80;;;0.60;99.90;;;0.38;90.89;97894.16;5099219;27;20455;-73
2023/03/15 06:07:56;;;;;;;20.93;10.70;;;0.60;99.90;;;0.43;90.55;97897.22;5083564;28;20510;-70
2023/03/15 06:10:25;;;;;;;19.17;11.30;;;0.70;99.90;;;0.50;90.19;97911.56;5101258;28;20553;-71
2023/03/15 06:12:52;;;;;;;16.40;9.67;;;0.70;99.90;;;0.53;90.37;97907.75;5088412;28;20556;-71
2023/03/15 06:15:20;;;;;;;19.10;10.00;;;0.80;99.90;;;0.50;90.34;97892.94;5076204;28;20471;-73
2023/03/15 06:17:47;;;;;;;16.70;9.80;;;0.90;99.90;;;0.59;89.74;97899.16;5096624;27;20447;-71
2023/03/15 06:20:14;;;;;;;19.20;10.60;;;0.90;99.90;;;0.55;89.81;97903.97;5081000;28;20453;-69
2023/03/15 06:22:41;;;;;;;18.03;10.17;;;1.00;99.90;;;0.69;89.54;97896.44;5085164;28;20558;-70
2023/03/15 06:25:10;;;;;;;15.10;9.37;;;1.10;99.90;;;0.53;88.02;97876.72;5076304;28;20652;-74
2023/03/15 06:27:39;;;;;;;24.27;12.40;;;1.10;99.90;;;-0.25;88.03;97720.63;5078758;28;20499;-70
2023/03/15 06:30:08;;;;;;;15.10;9.00;;;1.10;99.90;;;0.61;88.92;97899.00;5086809;28;20460;-70
2023/03/15 06:32:35;;;;;;;23.47;9.53;;;1.00;99.90;;;0.69;88.69;97901.75;5080988;28;20464;-69
2023/03/15 06:35:03;;;;;;;15.33;8.97;;;1.00;99.90;;;0.66;88.25;97905.53;5087775;28;20511;-71
2023/03/15 06:37:30;;;;;;;17.83;10.40;;;1.00;99.90;;;0.74;87.72;97901.25;5085097;28;20957;-71
2023/03/15 06:39:58;;;;;;;18.03;9.90;;;1.00;99.90;;;0.64;87.87;97899.56;5073070;28;20962;-71
2023/03/15 06:42:25;;;;;;;19.70;11.03;;;1.10;99.90;;;0.92;89.12;97910.06;5089175;28;20474;-72
2023/03/15 06:44:53;;;;;;;21.27;10.13;;;1.20;99.90;;;1.11;88.20;97906.31;5083162;28;20510;-72
2023/03/15 06:47:21;;;;;;;28.97;11.00;;;1.40;99.90;;;1.04;87.35;97907.09;5087547;28;20927;-69
2023/03/15 06:49:49;;;;;;;20.27;9.90;;;1.50;99.90;;;0.89;86.10;97917.50;5079449;28;20513;-72
2023/03/15 06:52:16;;;;;;;20.30;9.93;;;1.30;98.90;;;0.98;86.33;97905.91;5071277;28;20457;-70
2023/03/15 06:54:44;;;;;;;18.20;9.77;;;1.40;98.90;;;1.12;85.45;97907.97;5077298;28;20441;-72
2023/03/15 06:57:11;;;;;;;19.63;9.90;;;1.40;99.40;;;1.09;85.31;97902.97;5093477;27;20459;-70
2023/03/15 06:59:38;;;;;;;17.63;12.55;;;1.50;98.60;;;1.18;84.74;97911.03;5069980;28;20456;-68
2023/03/15 07:02:14;;;;;;;16.67;10.83;;;1.50;98.10;;;1.03;84.12;97879.69;5080139;28;20189;-72
2023/03/15 07:04:43;;;;;;;14.73;9.60;;;1.50;96.00;;;1.22;83.76;97899.91;5089417;28;20524;-70
2023/03/15 07:07:11;;;;;;;17.20;9.53;;;1.60;94.50;;;1.24;83.53;97897.06;5072122;28;20452;-70
2023/03/15 07:09:39;;;;;;;16.73;8.87;;;1.60;94.50;;;1.28;82.88;97906.41;5087716;28;20487;-70
2023/03/15 07:12:07;;;;;;;14.70;8.20;;;1.60;94.10;;;1.41;82.25;97909.47;5075447;28;20796;-72
2023/03/15 07:14:35;;;;;;;12.17;8.20;;;1.70;93.20;;;1.32;81.81;97894.47;5084539;28;20460;-73
2023/03/15 07:17:03;;;;;;;15.57;8.17;;;1.80;92.20;;;1.50;81.49;97917.50;5080202;28;20451;-72
2023/03/15 07:19:31;;;;;;;13.80;8.37;;;1.90;91.80;;;1.40;81.38;97918.44;5109227;27;20443;-71
2023/03/15 07:21:59;;;;;;;12.37;8.20;;;1.90;91.10;;;1.53;81.62;97926.03;5095934;28;20458;-71
2023/03/15 07:24:27;;;;;;;13.10;8.00;;;1.90;91.60;;;1.62;81.27;97918.88;5074338;28;20458;-70
2023/03/15 07:26:55;;;;;;;13.23;7.97;;;2.00;91.50;;;1.50;80.74;97898.88;5079176;28;20464;-70
2023/03/15 07:29:22;;;;;;;11.73;7.83;;;2.00;90.70;;;1.32;81.13;97914.91;5090033;28;20482;-70
2023/03/15 07:31:50;;;;;;;17.60;8.10;;;1.90;90.40;;;1.53;80.96;97893.22;5106418;27;20779;-70
2023/03/15 07:34:17;;;;;;;15.80;11.00;;;2.00;91.30;;;1.74;79.80;97915.91;5112952;27;20443;-70
2023/03/15 07:36:47;;;;;;;13.30;7.20;;;2.10;90.20;;;1.92;77.89;97918.47;5074981;28;20443;-69
2023/03/15 07:39:14;;;;;;;11.53;7.20;;;2.30;87.60;;;1.97;77.37;97917.00;5073797;28;20481;-70
2023/03/15 07:41:42;;;;;;;14.37;8.93;;;2.40;85.80;;;2.21;77.71;97920.72;5077204;28;20492;-71
2023/03/15 07:44:09;;;;;;;12.30;7.80;;;2.50;87.50;;;2.20;76.68;97927.06;5091073;28;20458;-69
2023/03/15 07:46:37;;;;;;;10.40;7.13;;;2.60;84.80;;;2.28;76.12;97928.03;5077480;28;20462;-70
2023/03/15 07:49:04;;;;;;;10.50;6.97;;;2.60;84.00;;;2.25;75.14;97930.06;5079089;28;20476;-70
2023/03/15 07:51:32;;;;;;;11.20;6.90;;;2.70;82.50;;;2.19;76.24;97949.34;5097112;28;20455;-68
2023/03/15 07:54:01;;;;;;;12.80;6.90;;;2.70;83.40;;;2.35;75.45;97945.03;5083252;28;20456;-69
2023/03/15 07:56:28;;;;;;;13.50;8.03;;;2.80;83.60;;;2.52;74.71;97954.75;5075765;28;20447;-71
2023/03/15 07:58:56;;;;;;;11.73;7.60;;;2.80;82.90;;;2.64;73.94;97938.41;5083193;28;20467;-69
2023/03/15 08:01:23;;;;;;;12.00;6.20;;;3.00;82.60;;;2.82;73.03;97946.25;5081216;28;20442;-68
2023/03/15 08:03:50;;;;;;;13.00;7.13;;;3.10;81.00;;;2.83;72.56;97948.75;5074400;28;20466;-70
2023/03/15 08:06:18;;;;;;;11.40;6.50;;;3.20;80.90;;;3.07;71.48;97943.56;5071247;28;20498;-70
2023/03/15 08:08:48;;;;;;;8.97;5.50;;;3.40;79.50;;;3.01;71.02;97944.22;5101181;27;20467;-70
2023/03/15 08:11:18;;;;;;;11.77;6.20;;;3.50;78.60;;;2.98;70.45;97951.56;5100520;27;20459;-72
2023/03/15 08:13:45;;;;;;;9.63;5.87;;;3.50;78.30;;;2.69;71.19;97942.25;5077683;28;20469;-69
2023/03/15 08:16:12;;;;;;;10.23;5.97;;;3.30;78.60;;;2.89;70.63;97949.06;5076938;28;20446;-71
2023/03/15 08:18:39;;;;;;;6.90;5.13;;;3.30;78.50;;;2.96;70.25;97950.09;5077362;28;20461;-71
2023/03/15 08:21:06;;;;;;;14.03;5.57;;;3.30;78.30;;;2.39;69.42;97867.22;5075745;28;20443;-70
2023/03/15 08:23:33;;;;;;;6.70;4.80;;;3.40;77.70;;;2.92;70.07;97962.94;5097910;27;20455;-73
2023/03/15 08:26:01;;;;;;;15.23;5.23;;;3.40;77.60;;;3.00;68.34;97958.56;5098206;27;20463;-71
2023/03/15 08:28:29;;;;;;;7.20;5.10;;;3.40;76.80;;;2.93;70.16;97971.75;5085601;28;20498;-68
2023/03/15 08:30:56;;;;;;;7.93;6.00;;;3.40;77.50;;;3.02;70.41;97969.91;5079942;28;20452;-69
2023/03/15 08:33:24;;;;;;;8.60;5.33;;;3.40;77.90;;;3.09;69.48;97965.59;5083984;28;20454;-71
2023/03/15 08:35:55;;;;;;;11.03;5.27;;;3.50;77.70;;;3.10;69.06;97962.72;5072855;28;20901;-68
2023/03/15 08:38:22;;;;;;;8.30;5.37;;;3.50;77.40;;;3.21;69.13;97969.56;5089293;27;20441;-69
2023/03/15 08:40:50;;;;;;;10.50;6.17;;;3.60;77.60;;;3.08;68.20;97959.38;5113245;27;20526;-70
2023/03/15 08:43:17;;;;;;;11.70;4.53;;;3.60;76.20;;;3.08;68.78;97959.38;5080237;28;20581;-68
2023/03/15 08:45:45;;;;;;;6.83;5.00;;;3.60;76.50;;;2.95;68.33;97941.22;5096470;28;20452;-71
2023/03/15 08:48:13;;;;;;;7.40;4.43;;;3.60;76.20;;;3.37;66.60;97971.38;5083048;28;20479;-70
2023/03/15 08:50:40;;;;;;;7.53;4.13;;;3.70;75.60;;;3.44;65.38;97970.69;5076091;28;20520;-70
2023/03/15 08:53:08;;;;;;;7.23;5.10;;;3.80;74.70;;;3.58;66.44;97969.16;5086079;27;20445;-70
2023/03/15 08:55:35;;;;;;;8.40;4.37;;;3.90;75.60;;;3.62;64.96;97973.97;5092482;28;20464;-68
2023/03/15 08:58:03;;;;;;;10.90;4.60;;;4.00;74.10;;;3.64;64.88;97971.13;5120751;27;20452;-69
2023/03/15 09:00:31;;;;;;;7.33;4.20;;;4.10;73.90;;;3.31;63.80;97901.78;5078321;28;20467;-69
2023/03/15 09:03:00;;;;;;;5.10;4.00;;;4.20;73.30;;;4.14;63.49;97977.09;5129505;27;20469;-69
2023/03/15 09:05:27;;;;;;;5.33;4.00;;;4.40;73.10;;;4.46;62.13;97985.94;5081188;28;20464;-70
2023/03/15 09:07:55;;;;;;;8.73;3.83;;;4.70;71.80;;;4.82;60.89;97980.03;5105142;28;20919;-70
2023/03/15 09:10:22;;;;;;;7.10;4.00;;;5.10;71.30;;;5.65;59.53;97981.91;5082619;28;20456;-69
2023/03/15 09:12:53;;;;;;;12.93;4.00;;;5.70;71.00;;;6.11;58.21;97982.75;5079402;28;20487;-71
2023/03/15 09:15:20;;;;;;;7.63;3.10;;;6.30;70.00;;;5.47;57.46;97917.13;5101919;27;20492;-72
2023/03/15 09:17:50;;;;;;;8.37;4.47;;;6.30;67.30;;;5.84;57.86;97976.19;5085715;28;20930;-71
2023/03/15 09:20:21;;;;;;;6.73;4.07;;;6.20;67.80;;;5.03;60.46;97911.56;5096409;28;20473;-69
2023/03/15 09:22:53;;;;;;;6.17;3.37;;;5.90;69.00;;;5.65;60.06;97978.41;5104377;28;20479;-68
2023/03/15 09:25:22;;;;;;;3.93;2.33;;;5.90;69.10;;;5.33;59.73;97997.31;5110916;27;20464;-68
2023/03/15 09:27:49;;;;;;;6.90;3.73;;;5.90;68.50;;;5.33;59.04;97985.78;5080971;28;20457;-70
2023/03/15 09:30:18;;;;;;;4.63;3.10;;;5.70;68.40;;;5.30;59.42;97986.97;5097198;27;20981;-67
2023/03/15 09:32:45;;;;;;;15.13;5.13;;;5.70;68.40;;;5.25;60.33;98000.91;5099616;27;20456;-69
2023/03/15 09:35:16;;;;;;;9.97;4.83;;;5.60;69.00;;;6.11;58.64;97993.47;5091489;28;20456;-69
2023/03/15 09:37:44;;;;;;;6.83;3.43;;;6.10;68.80;;;6.44;56.99;97982.28;5078778;28;20525;-69
2023/03/15 09:40:23;;;;;;;7.23;3.53;;;6.70;67.20;;;6.96;55.63;97982.19;5087984;28;20453;-69
2023/03/15 09:43:19;;;;;;;7.50;2.95;;;7.10;66.20;;;6.70;54.23;97997.03;5098233;28;20920;-66
2023/03/15 09:46:08;;;;;;;6.25;2.90;;;7.30;63.30;;;6.23;56.39;97994.66;5088314;28;20364;-67
2023/03/15 09:48:39;;;;;;;4.27;2.93;;;6.70;64.20;;;5.63;57.32;98005.38;5080702;28;20216;-67
2023/03/15 09:51:14;;;;;;;3.93;2.47;;;6.20;64.40;;;5.74;57.24;97998.72;5079612;28;20440;-68
2023/03/15 09:53:49;;;;;;;13.10;3.50;;;6.00;64.90;;;5.66;57.40;98010.38;5096503;28;20459;-67
2023/03/15 09:56:25;;;;;;;6.00;2.70;;;5.90;65.30;;;5.23;58.29;98012.81;5097673;27;20443;-67
2023/03/15 09:58:57;;;;;;;7.20;3.00;;;5.70;65.90;;;4.81;58.90;98007.81;5088411;28;20459;-67
2023/03/15 10:01:31;;;;;;;7.67;3.20;;;5.30;65.40;;;4.97;58.87;98008.69;5095307;27;20886;-67
2023/03/15 10:04:03;;;;;;;6.63;2.83;;;5.30;66.60;;;5.10;59.44;98018.78;5096621;28;20970;-69
2023/03/15 10:06:33;;;;;;;4.23;3.10;;;5.30;67.10;;;5.14;60.04;98022.75;5100936;28;20453;-69
2023/03/15 10:09:10;;;;;;;12.77;3.80;;;5.40;67.90;;;5.17;60.27;98013.53;5128436;27;20471;-69
2023/03/15 10:11:48;;;;;;;10.47;4.10;;;5.40;68.10;;;5.26;60.32;98009.78;5083639;28;20452;-71
2023/03/15 10:14:32;;;;;;;7.63;3.90;;;5.50;68.50;;;5.27;59.89;98010.59;5087113;28;20458;-69
2023/03/15 10:17:03;;;;;;;8.47;3.57;;;5.70;68.20;;;5.23;60.50;98027.03;5099983;28;20452;-68
2023/03/15 10:19:44;;;;;;;9.30;3.47;;;5.60;67.90;;;5.05;60.75;97997.06;5076547;28;20943;-69
2023/03/15 10:22:23;;;;;;;9.13;3.40;;;5.50;68.90;;;4.87;60.07;97986.66;5088029;28;20448;-69
2023/03/15 10:24:57;;;;;;;9.27;3.77;;;5.60;68.40;;;5.01;62.40;98009.97;5096688;28;20460;-71
2023/03/15 10:27:32;;;;;;;8.83;4.20;;;5.40;69.80;;;5.37;60.95;98020.03;5122223;27;20456;-68
2023/03/15 10:30:01;;;;;;;6.53;3.70;;;5.50;69.70;;;6.15;59.30;98021.59;5085287;28;20464;-69
2023/03/15 10:32:35;;;;;;;8.37;3.40;;;6.10;69.50;;;5.52;59.92;98008.50;5100619;28;20484;-69
2023/03/15 10:35:03;;;;;;;5.33;3.60;;;6.00;68.20;;;5.26;61.29;98023.19;5100514;28;20452;-70